sensor_id;sensor_type;location;lat;lon;timestamp;P1;durP1;ratioP1;P2;durP2;ratioP2
65202;SDS011;51788;45.124;38.966;2022-09-13T00:02:05;8.38;;;7.57;;
65202;SDS011;51788;45.124;38.966;2022-09-13T00:04:32;7.10;;;6.50;;
65202;SDS011;51788;45.124;38.966;2022-09-13T00:06:58;6.47;;;5.97;;
65202;SDS011;51788;45.124;38.966;2022-09-13T00:09:24;6.90;;;6.22;;
65202;SDS011;51788;45.124;38.966;2022-09-13T00:11:50;5.78;;;5.15;;
65202;SDS011;51788;45.124;38.966;2022-09-13T00:14:16;6.05;;;5.30;;
65202;SDS011;51788;45.124;38.966;2022-09-13T00:16:42;5.53;;;4.85;;
65202;SDS011;51788;45.124;38.966;2022-09-13T00:19:08;5.53;;;5.03;;
65202;SDS011;51788;45.124;38.966;2022-09-13T00:21:34;8.98;;;5.30;;
65202;SDS011;51788;45.124;38.966;2022-09-13T00:24:00;7.57;;;5.35;;
65202;SDS011;51788;45.124;38.966;2022-09-13T00:26:27;6.15;;;5.55;;
65202;SDS011;51788;45.124;38.966;2022-09-13T00:28:54;6.40;;;5.80;;
65202;SDS011;51788;45.124;38.966;2022-09-13T00:31:23;7.70;;;6.05;;
65202;SDS011;51788;45.124;38.966;2022-09-13T00:33:51;7.05;;;6.15;;
65202;SDS011;51788;45.124;38.966;2022-09-13T00:36:17;6.95;;;6.13;;
65202;SDS011;51788;45.124;38.966;2022-09-13T00:38:43;7.18;;;6.38;;
65202;SDS011;51788;45.124;38.966;2022-09-13T00:41:11;10.65;;;6.75;;
65202;SDS011;51788;45.124;38.966;2022-09-13T00:43:46;7.70;;;6.97;;
65202;SDS011;51788;45.124;38.966;2022-09-13T00:46:25;6.40;;;5.90;;
65202;SDS011;51788;45.124;38.966;2022-09-13T00:51:44;6.93;;;6.32;;
65202;SDS011;51788;45.124;38.966;2022-09-13T00:54:17;6.55;;;5.88;;
65202;SDS011;51788;45.124;38.966;2022-09-13T00:56:47;6.45;;;5.85;;
65202;SDS011;51788;45.124;38.966;2022-09-13T01:02:19;6.13;;;5.57;;
65202;SDS011;51788;45.124;38.966;2022-09-13T01:04:46;12.63;;;6.03;;
65202;SDS011;51788;45.124;38.966;2022-09-13T01:07:12;9.80;;;5.68;;
65202;SDS011;51788;45.124;38.966;2022-09-13T01:09:41;7.13;;;5.63;;
65202;SDS011;51788;45.124;38.966;2022-09-13T01:14:51;9.45;;;5.70;;
65202;SDS011;51788;45.124;38.966;2022-09-13T01:17:17;6.75;;;5.65;;
65202;SDS011;51788;45.124;38.966;2022-09-13T01:19:44;7.25;;;5.38;;
65202;SDS011;51788;45.124;38.966;2022-09-13T01:25:02;7.63;;;6.68;;
65202;SDS011;51788;45.124;38.966;2022-09-13T01:30:47;6.50;;;5.90;;
65202;SDS011;51788;45.124;38.966;2022-09-13T01:36:22;10.68;;;5.20;;
65202;SDS011;51788;45.124;38.966;2022-09-13T01:39:04;5.30;;;4.82;;
65202;SDS011;51788;45.124;38.966;2022-09-13T01:44:08;5.35;;;4.95;;
65202;SDS011;51788;45.124;38.966;2022-09-13T01:54:29;7.07;;;4.50;;
65202;SDS011;51788;45.124;38.966;2022-09-13T01:59:51;6.97;;;4.32;;
65202;SDS011;51788;45.124;38.966;2022-09-13T02:02:29;5.30;;;4.80;;
65202;SDS011;51788;45.124;38.966;2022-09-13T02:05:17;6.40;;;5.22;;
65202;SDS011;51788;45.124;38.966;2022-09-13T02:08:10;4.95;;;4.55;;
65202;SDS011;51788;45.124;38.966;2022-09-13T02:10:46;9.02;;;5.15;;
65202;SDS011;51788;45.124;38.966;2022-09-13T02:13:20;5.20;;;4.70;;
65202;SDS011;51788;45.124;38.966;2022-09-13T02:15:55;11.77;;;4.78;;
65202;SDS011;51788;45.124;38.966;2022-09-13T02:18:31;5.82;;;4.30;;
65202;SDS011;51788;45.124;38.966;2022-09-13T02:21:02;8.57;;;5.60;;
65202;SDS011;51788;45.124;38.966;2022-09-13T02:23:37;5.32;;;4.82;;
65202;SDS011;51788;45.124;38.966;2022-09-13T02:26:13;5.88;;;4.82;;
65202;SDS011;51788;45.124;38.966;2022-09-13T02:28:41;7.53;;;4.82;;
65202;SDS011;51788;45.124;38.966;2022-09-13T02:33:43;10.65;;;5.20;;
65202;SDS011;51788;45.124;38.966;2022-09-13T02:36:19;9.88;;;4.53;;
65202;SDS011;51788;45.124;38.966;2022-09-13T02:41:29;14.60;;;5.05;;
65202;SDS011;51788;45.124;38.966;2022-09-13T02:49:25;6.43;;;5.32;;
65202;SDS011;51788;45.124;38.966;2022-09-13T02:52:12;6.20;;;5.40;;
65202;SDS011;51788;45.124;38.966;2022-09-13T02:54:56;5.90;;;5.00;;
65202;SDS011;51788;45.124;38.966;2022-09-13T02:57:36;6.47;;;5.35;;
65202;SDS011;51788;45.124;38.966;2022-09-13T03:00:07;9.75;;;5.38;;
65202;SDS011;51788;45.124;38.966;2022-09-13T03:02:34;7.13;;;5.28;;
65202;SDS011;51788;45.124;38.966;2022-09-13T03:05:02;7.00;;;6.40;;
65202;SDS011;51788;45.124;38.966;2022-09-13T03:07:28;5.93;;;5.47;;
65202;SDS011;51788;45.124;38.966;2022-09-13T03:10:00;6.40;;;5.80;;
65202;SDS011;51788;45.124;38.966;2022-09-13T03:12:47;6.00;;;5.40;;
65202;SDS011;51788;45.124;38.966;2022-09-13T03:26:07;6.55;;;5.80;;
65202;SDS011;51788;45.124;38.966;2022-09-13T03:34:42;8.10;;;5.78;;
65202;SDS011;51788;45.124;38.966;2022-09-13T03:40:17;11.50;;;6.57;;
65202;SDS011;51788;45.124;38.966;2022-09-13T03:42:59;8.52;;;5.97;;
65202;SDS011;51788;45.124;38.966;2022-09-13T03:45:35;7.07;;;6.38;;
65202;SDS011;51788;45.124;38.966;2022-09-13T03:48:07;6.55;;;6.05;;
65202;SDS011;51788;45.124;38.966;2022-09-13T03:50:36;14.23;;;7.22;;
65202;SDS011;51788;45.124;38.966;2022-09-13T03:53:05;7.70;;;6.93;;
65202;SDS011;51788;45.124;38.966;2022-09-13T03:55:37;8.75;;;6.20;;
65202;SDS011;51788;45.124;38.966;2022-09-13T03:58:05;11.48;;;7.05;;
65202;SDS011;51788;45.124;38.966;2022-09-13T04:00:31;13.65;;;6.75;;
65202;SDS011;51788;45.124;38.966;2022-09-13T04:02:58;9.77;;;7.55;;
65202;SDS011;51788;45.124;38.966;2022-09-13T04:05:24;7.90;;;6.05;;
65202;SDS011;51788;45.124;38.966;2022-09-13T04:07:50;8.73;;;6.63;;
65202;SDS011;51788;45.124;38.966;2022-09-13T04:10:16;17.45;;;6.75;;
65202;SDS011;51788;45.124;38.966;2022-09-13T04:12:41;6.88;;;6.28;;
65202;SDS011;51788;45.124;38.966;2022-09-13T04:15:08;13.95;;;6.75;;
65202;SDS011;51788;45.124;38.966;2022-09-13T04:17:34;6.88;;;6.22;;
65202;SDS011;51788;45.124;38.966;2022-09-13T04:20:00;7.65;;;6.10;;
65202;SDS011;51788;45.124;38.966;2022-09-13T04:22:27;11.95;;;6.60;;
65202;SDS011;51788;45.124;38.966;2022-09-13T04:24:53;9.50;;;6.32;;
65202;SDS011;51788;45.124;38.966;2022-09-13T04:27:19;10.15;;;6.47;;
65202;SDS011;51788;45.124;38.966;2022-09-13T04:29:45;6.00;;;5.50;;
65202;SDS011;51788;45.124;38.966;2022-09-13T04:32:11;6.65;;;5.80;;
65202;SDS011;51788;45.124;38.966;2022-09-13T04:34:37;11.45;;;5.53;;
65202;SDS011;51788;45.124;38.966;2022-09-13T04:37:03;8.07;;;7.07;;
65202;SDS011;51788;45.124;38.966;2022-09-13T04:39:29;7.90;;;6.05;;
65202;SDS011;51788;45.124;38.966;2022-09-13T04:41:55;9.30;;;5.97;;
65202;SDS011;51788;45.124;38.966;2022-09-13T04:44:21;7.57;;;5.82;;
65202;SDS011;51788;45.124;38.966;2022-09-13T04:46:48;9.70;;;5.72;;
65202;SDS011;51788;45.124;38.966;2022-09-13T04:49:15;12.65;;;6.20;;
65202;SDS011;51788;45.124;38.966;2022-09-13T04:51:42;8.95;;;6.03;;
65202;SDS011;51788;45.124;38.966;2022-09-13T04:54:08;10.13;;;5.82;;
65202;SDS011;51788;45.124;38.966;2022-09-13T04:56:36;7.68;;;6.03;;
65202;SDS011;51788;45.124;38.966;2022-09-13T04:59:01;7.75;;;6.20;;
65202;SDS011;51788;45.124;38.966;2022-09-13T05:01:27;8.95;;;6.35;;
65202;SDS011;51788;45.124;38.966;2022-09-13T05:03:54;7.05;;;5.85;;
65202;SDS011;51788;45.124;38.966;2022-09-13T05:06:20;8.70;;;5.60;;
65202;SDS011;51788;45.124;38.966;2022-09-13T05:08:50;7.13;;;6.45;;
65202;SDS011;51788;45.124;38.966;2022-09-13T05:11:22;6.50;;;6.00;;
65202;SDS011;51788;45.124;38.966;2022-09-13T05:13:59;10.27;;;6.10;;
65202;SDS011;51788;45.124;38.966;2022-09-13T05:16:29;8.00;;;7.20;;
65202;SDS011;51788;45.124;38.966;2022-09-13T05:18:57;8.00;;;7.22;;
65202;SDS011;51788;45.124;38.966;2022-09-13T05:21:23;13.02;;;7.90;;
65202;SDS011;51788;45.124;38.966;2022-09-13T05:23:50;8.93;;;7.65;;
65202;SDS011;51788;45.124;38.966;2022-09-13T05:26:18;8.35;;;7.55;;
65202;SDS011;51788;45.124;38.966;2022-09-13T05:28:45;9.02;;;8.07;;
65202;SDS011;51788;45.124;38.966;2022-09-13T05:31:15;8.00;;;7.20;;
65202;SDS011;51788;45.124;38.966;2022-09-13T05:33:47;10.68;;;7.13;;
65202;SDS011;51788;45.124;38.966;2022-09-13T05:36:18;9.38;;;6.72;;
65202;SDS011;51788;45.124;38.966;2022-09-13T05:38:44;8.05;;;7.25;;
65202;SDS011;51788;45.124;38.966;2022-09-13T05:41:10;9.45;;;6.63;;
65202;SDS011;51788;45.124;38.966;2022-09-13T05:43:36;9.65;;;6.55;;
65202;SDS011;51788;45.124;38.966;2022-09-13T05:46:04;6.57;;;6.10;;
65202;SDS011;51788;45.124;38.966;2022-09-13T05:48:41;6.20;;;5.65;;
65202;SDS011;51788;45.124;38.966;2022-09-13T05:51:17;7.13;;;5.80;;
65202;SDS011;51788;45.124;38.966;2022-09-13T05:53:46;16.13;;;6.65;;
65202;SDS011;51788;45.124;38.966;2022-09-13T05:56:17;6.68;;;5.43;;
65202;SDS011;51788;45.124;38.966;2022-09-13T05:58:45;6.22;;;5.68;;
65202;SDS011;51788;45.124;38.966;2022-09-13T06:01:13;7.60;;;5.50;;
65202;SDS011;51788;45.124;38.966;2022-09-13T06:03:50;6.82;;;5.53;;
65202;SDS011;51788;45.124;38.966;2022-09-13T06:06:18;13.13;;;5.85;;
65202;SDS011;51788;45.124;38.966;2022-09-13T06:08:44;6.90;;;5.97;;
65202;SDS011;51788;45.124;38.966;2022-09-13T06:11:11;7.22;;;6.15;;
65202;SDS011;51788;45.124;38.966;2022-09-13T06:13:39;5.30;;;4.90;;
65202;SDS011;51788;45.124;38.966;2022-09-13T06:16:08;5.68;;;5.15;;
65202;SDS011;51788;45.124;38.966;2022-09-13T06:18:36;5.82;;;5.00;;
65202;SDS011;51788;45.124;38.966;2022-09-13T06:21:03;8.80;;;5.88;;
65202;SDS011;51788;45.124;38.966;2022-09-13T06:23:42;6.70;;;5.28;;
65202;SDS011;51788;45.124;38.966;2022-09-13T06:26:10;5.68;;;5.22;;
65202;SDS011;51788;45.124;38.966;2022-09-13T06:28:37;6.03;;;4.78;;
65202;SDS011;51788;45.124;38.966;2022-09-13T06:33:38;6.38;;;4.90;;
65202;SDS011;51788;45.124;38.966;2022-09-13T06:36:06;6.93;;;5.43;;
65202;SDS011;51788;45.124;38.966;2022-09-13T06:38:35;7.45;;;5.00;;
65202;SDS011;51788;45.124;38.966;2022-09-13T06:41:05;9.40;;;4.40;;
65202;SDS011;51788;45.124;38.966;2022-09-13T06:43:39;7.15;;;4.95;;
65202;SDS011;51788;45.124;38.966;2022-09-13T06:46:09;5.45;;;4.95;;
65202;SDS011;51788;45.124;38.966;2022-09-13T06:48:42;5.45;;;4.95;;
65202;SDS011;51788;45.124;38.966;2022-09-13T06:51:10;13.20;;;5.25;;
65202;SDS011;51788;45.124;38.966;2022-09-13T06:53:41;8.85;;;5.00;;
65202;SDS011;51788;45.124;38.966;2022-09-13T06:56:09;5.20;;;4.70;;
65202;SDS011;51788;45.124;38.966;2022-09-13T06:58:37;4.90;;;4.60;;
65202;SDS011;51788;45.124;38.966;2022-09-13T07:01:05;7.38;;;5.00;;
65202;SDS011;51788;45.124;38.966;2022-09-13T07:03:58;8.00;;;4.40;;
65202;SDS011;51788;45.124;38.966;2022-09-13T07:06:36;5.55;;;4.78;;
65202;SDS011;51788;45.124;38.966;2022-09-13T07:09:06;6.78;;;4.65;;
65202;SDS011;51788;45.124;38.966;2022-09-13T07:11:35;5.18;;;4.38;;
65202;SDS011;51788;45.124;38.966;2022-09-13T07:14:02;8.40;;;4.70;;
65202;SDS011;51788;45.124;38.966;2022-09-13T07:16:32;7.68;;;5.10;;
65202;SDS011;51788;45.124;38.966;2022-09-13T07:19:00;5.68;;;5.15;;
65202;SDS011;51788;45.124;38.966;2022-09-13T07:21:30;10.38;;;5.72;;
65202;SDS011;51788;45.124;38.966;2022-09-13T07:23:58;8.10;;;4.82;;
65202;SDS011;51788;45.124;38.966;2022-09-13T07:26:25;5.35;;;4.88;;
65202;SDS011;51788;45.124;38.966;2022-09-13T07:28:52;5.38;;;4.82;;
65202;SDS011;51788;45.124;38.966;2022-09-13T07:31:21;9.55;;;5.30;;
65202;SDS011;51788;45.124;38.966;2022-09-13T07:33:56;5.93;;;5.18;;
65202;SDS011;51788;45.124;38.966;2022-09-13T07:36:24;8.88;;;5.18;;
65202;SDS011;51788;45.124;38.966;2022-09-13T07:38:51;13.65;;;5.82;;
65202;SDS011;51788;45.124;38.966;2022-09-13T07:41:18;6.32;;;4.72;;
65202;SDS011;51788;45.124;38.966;2022-09-13T07:43:45;6.57;;;5.20;;
65202;SDS011;51788;45.124;38.966;2022-09-13T07:46:13;10.75;;;5.88;;
65202;SDS011;51788;45.124;38.966;2022-09-13T07:48:41;5.72;;;5.13;;
65202;SDS011;51788;45.124;38.966;2022-09-13T07:51:16;8.18;;;5.40;;
65202;SDS011;51788;45.124;38.966;2022-09-13T07:53:45;10.23;;;5.57;;
65202;SDS011;51788;45.124;38.966;2022-09-13T07:56:13;6.47;;;5.00;;
65202;SDS011;51788;45.124;38.966;2022-09-13T07:58:44;8.50;;;5.72;;
65202;SDS011;51788;45.124;38.966;2022-09-13T08:01:24;10.07;;;5.40;;
65202;SDS011;51788;45.124;38.966;2022-09-13T08:03:53;5.82;;;5.18;;
65202;SDS011;51788;45.124;38.966;2022-09-13T08:06:21;8.35;;;5.50;;
65202;SDS011;51788;45.124;38.966;2022-09-13T08:08:48;6.95;;;6.35;;
65202;SDS011;51788;45.124;38.966;2022-09-13T08:11:18;6.57;;;5.97;;
65202;SDS011;51788;45.124;38.966;2022-09-13T08:13:46;7.40;;;5.97;;
65202;SDS011;51788;45.124;38.966;2022-09-13T08:16:14;5.70;;;5.30;;
65202;SDS011;51788;45.124;38.966;2022-09-13T08:18:48;6.65;;;6.05;;
65202;SDS011;51788;45.124;38.966;2022-09-13T08:21:19;9.25;;;6.13;;
65202;SDS011;51788;45.124;38.966;2022-09-13T08:23:45;7.97;;;6.43;;
65202;SDS011;51788;45.124;38.966;2022-09-13T08:26:12;7.78;;;6.05;;
65202;SDS011;51788;45.124;38.966;2022-09-13T08:28:38;6.45;;;5.78;;
65202;SDS011;51788;45.124;38.966;2022-09-13T08:31:07;6.22;;;5.72;;
65202;SDS011;51788;45.124;38.966;2022-09-13T08:33:34;5.57;;;5.10;;
65202;SDS011;51788;45.124;38.966;2022-09-13T08:36:01;6.30;;;5.80;;
65202;SDS011;51788;45.124;38.966;2022-09-13T08:38:27;11.70;;;6.00;;
65202;SDS011;51788;45.124;38.966;2022-09-13T08:41:18;7.68;;;6.10;;
65202;SDS011;51788;45.124;38.966;2022-09-13T08:46:21;5.65;;;5.15;;
65202;SDS011;51788;45.124;38.966;2022-09-13T08:48:52;8.80;;;5.60;;
65202;SDS011;51788;45.124;38.966;2022-09-13T08:51:33;6.63;;;4.60;;
65202;SDS011;51788;45.124;38.966;2022-09-13T08:54:03;11.93;;;4.37;;
65202;SDS011;51788;45.124;38.966;2022-09-13T08:56:41;5.00;;;4.47;;
65202;SDS011;51788;45.124;38.966;2022-09-13T08:59:28;17.38;;;4.85;;
65202;SDS011;51788;45.124;38.966;2022-09-13T09:05:14;5.82;;;4.72;;
65202;SDS011;51788;45.124;38.966;2022-09-13T09:07:51;10.93;;;4.60;;
65202;SDS011;51788;45.124;38.966;2022-09-13T09:13:07;4.43;;;4.13;;
65202;SDS011;51788;45.124;38.966;2022-09-13T09:16:26;4.22;;;3.97;;
65202;SDS011;51788;45.124;38.966;2022-09-13T09:18:52;4.32;;;4.03;;
65202;SDS011;51788;45.124;38.966;2022-09-13T09:21:22;10.25;;;5.07;;
65202;SDS011;51788;45.124;38.966;2022-09-13T09:23:54;7.75;;;4.55;;
65202;SDS011;51788;45.124;38.966;2022-09-13T09:26:21;7.28;;;4.82;;
65202;SDS011;51788;45.124;38.966;2022-09-13T09:28:55;9.85;;;4.88;;
65202;SDS011;51788;45.124;38.966;2022-09-13T09:37:21;4.82;;;4.53;;
65202;SDS011;51788;45.124;38.966;2022-09-13T09:39:52;5.53;;;5.00;;
65202;SDS011;51788;45.124;38.966;2022-09-13T09:42:21;5.32;;;4.93;;
65202;SDS011;51788;45.124;38.966;2022-09-13T09:44:52;8.35;;;5.72;;
65202;SDS011;51788;45.124;38.966;2022-09-13T09:47:26;4.90;;;4.55;;
65202;SDS011;51788;45.124;38.966;2022-09-13T09:50:09;6.97;;;4.28;;
65202;SDS011;51788;45.124;38.966;2022-09-13T09:55:17;12.82;;;4.13;;
65202;SDS011;51788;45.124;38.966;2022-09-13T09:58:05;4.40;;;3.88;;
65202;SDS011;51788;45.124;38.966;2022-09-13T10:00:34;4.05;;;3.75;;
65202;SDS011;51788;45.124;38.966;2022-09-13T10:03:24;3.78;;;3.58;;
65202;SDS011;51788;45.124;38.966;2022-09-13T10:06:11;3.70;;;3.50;;
65202;SDS011;51788;45.124;38.966;2022-09-13T10:08:43;5.22;;;3.55;;
65202;SDS011;51788;45.124;38.966;2022-09-13T10:11:20;11.15;;;3.53;;
65202;SDS011;51788;45.124;38.966;2022-09-13T10:14:00;3.65;;;3.45;;
65202;SDS011;51788;45.124;38.966;2022-09-13T10:16:27;3.78;;;3.47;;
65202;SDS011;51788;45.124;38.966;2022-09-13T10:19:14;2.83;;;2.70;;
65202;SDS011;51788;45.124;38.966;2022-09-13T10:22:04;5.20;;;3.00;;
65202;SDS011;51788;45.124;38.966;2022-09-13T10:24:35;3.15;;;2.95;;
65202;SDS011;51788;45.124;38.966;2022-09-13T10:27:01;6.75;;;2.83;;
65202;SDS011;51788;45.124;38.966;2022-09-13T10:29:28;2.45;;;2.35;;
65202;SDS011;51788;45.124;38.966;2022-09-13T10:31:56;6.35;;;2.67;;
65202;SDS011;51788;45.124;38.966;2022-09-13T10:34:30;3.08;;;2.88;;
65202;SDS011;51788;45.124;38.966;2022-09-13T10:37:02;4.50;;;3.05;;
65202;SDS011;51788;45.124;38.966;2022-09-13T10:39:31;4.70;;;3.22;;
65202;SDS011;51788;45.124;38.966;2022-09-13T10:44:32;14.63;;;3.35;;
65202;SDS011;51788;45.124;38.966;2022-09-13T10:47:06;4.00;;;2.80;;
65202;SDS011;51788;45.124;38.966;2022-09-13T10:49:45;5.13;;;2.80;;
65202;SDS011;51788;45.124;38.966;2022-09-13T10:54:53;2.75;;;2.60;;
65202;SDS011;51788;45.124;38.966;2022-09-13T10:57:34;3.03;;;2.83;;
65202;SDS011;51788;45.124;38.966;2022-09-13T11:00:04;4.05;;;3.15;;
65202;SDS011;51788;45.124;38.966;2022-09-13T11:02:38;9.10;;;3.22;;
65202;SDS011;51788;45.124;38.966;2022-09-13T11:08:06;5.53;;;3.38;;
65202;SDS011;51788;45.124;38.966;2022-09-13T11:10:46;10.63;;;3.00;;
65202;SDS011;51788;45.124;38.966;2022-09-13T11:57:45;7.75;;;2.50;;
65202;SDS011;51788;45.124;38.966;2022-09-13T12:00:19;3.50;;;2.78;;
65202;SDS011;51788;45.124;38.966;2022-09-13T12:02:54;4.57;;;2.70;;
65202;SDS011;51788;45.124;38.966;2022-09-13T12:05:29;5.43;;;2.70;;
65202;SDS011;51788;45.124;38.966;2022-09-13T12:15:56;3.10;;;2.90;;
65202;SDS011;51788;45.124;38.966;2022-09-13T12:18:31;8.65;;;3.60;;
65202;SDS011;51788;45.124;38.966;2022-09-13T12:21:08;6.15;;;2.95;;
65202;SDS011;51788;45.124;38.966;2022-09-13T12:23:37;3.17;;;2.80;;
65202;SDS011;51788;45.124;38.966;2022-09-13T12:29:10;2.80;;;2.60;;
65202;SDS011;51788;45.124;38.966;2022-09-13T12:31:38;2.58;;;2.40;;
65202;SDS011;51788;45.124;38.966;2022-09-13T12:34:05;8.77;;;2.78;;
65202;SDS011;51788;45.124;38.966;2022-09-13T12:58:47;4.18;;;2.28;;
65202;SDS011;51788;45.124;38.966;2022-09-13T13:01:25;3.20;;;2.95;;
65202;SDS011;51788;45.124;38.966;2022-09-13T13:03:55;5.22;;;2.50;;
65202;SDS011;51788;45.124;38.966;2022-09-13T13:09:21;8.18;;;3.13;;
65202;SDS011;51788;45.124;38.966;2022-09-13T13:12:11;3.05;;;2.78;;
65202;SDS011;51788;45.124;38.966;2022-09-13T13:14:49;2.63;;;2.50;;
65202;SDS011;51788;45.124;38.966;2022-09-13T13:23:04;2.65;;;2.50;;
65202;SDS011;51788;45.124;38.966;2022-09-13T13:25:53;6.72;;;2.50;;
65202;SDS011;51788;45.124;38.966;2022-09-13T13:33:58;7.18;;;2.78;;
65202;SDS011;51788;45.124;38.966;2022-09-13T13:36:29;7.90;;;2.90;;
65202;SDS011;51788;45.124;38.966;2022-09-13T13:38:59;2.20;;;2.10;;
65202;SDS011;51788;45.124;38.966;2022-09-13T13:44:54;12.55;;;2.53;;
65202;SDS011;51788;45.124;38.966;2022-09-13T13:46:48;6.20;;;2.53;;
65202;SDS011;51788;45.124;38.966;2022-09-13T14:00:30;2.92;;;2.22;;
65202;SDS011;51788;45.124;38.966;2022-09-13T14:16:37;5.20;;;3.25;;
65202;SDS011;51788;45.124;38.966;2022-09-13T14:19:20;4.07;;;2.60;;
65202;SDS011;51788;45.124;38.966;2022-09-13T14:22:04;4.43;;;2.13;;
65202;SDS011;51788;45.124;38.966;2022-09-13T14:24:44;3.78;;;2.47;;
65202;SDS011;51788;45.124;38.966;2022-09-13T14:27:16;5.80;;;2.65;;
65202;SDS011;51788;45.124;38.966;2022-09-13T14:29:55;8.38;;;3.00;;
65202;SDS011;51788;45.124;38.966;2022-09-13T14:32:25;8.68;;;2.97;;
65202;SDS011;51788;45.124;38.966;2022-09-13T14:34:57;3.17;;;2.88;;
65202;SDS011;51788;45.124;38.966;2022-09-13T14:37:30;3.10;;;2.72;;
65202;SDS011;51788;45.124;38.966;2022-09-13T14:42:43;3.72;;;2.70;;
65202;SDS011;51788;45.124;38.966;2022-09-13T14:45:15;2.75;;;2.53;;
65202;SDS011;51788;45.124;38.966;2022-09-13T14:50:26;6.82;;;2.72;;
65202;SDS011;51788;45.124;38.966;2022-09-13T14:53:06;5.30;;;2.80;;
65202;SDS011;51788;45.124;38.966;2022-09-13T14:55:40;3.85;;;2.70;;
65202;SDS011;51788;45.124;38.966;2022-09-13T14:58:16;4.63;;;2.17;;
65202;SDS011;51788;45.124;38.966;2022-09-13T15:00:50;5.93;;;2.10;;
65202;SDS011;51788;45.124;38.966;2022-09-13T15:03:22;4.00;;;2.78;;
65202;SDS011;51788;45.124;38.966;2022-09-13T15:05:58;5.22;;;2.45;;
65202;SDS011;51788;45.124;38.966;2022-09-13T15:11:02;4.03;;;2.42;;
65202;SDS011;51788;45.124;38.966;2022-09-13T15:15:55;6.30;;;2.72;;
65202;SDS011;51788;45.124;38.966;2022-09-13T15:18:23;3.15;;;2.72;;
65202;SDS011;51788;45.124;38.966;2022-09-13T15:23:41;9.73;;;2.25;;
65202;SDS011;51788;45.124;38.966;2022-09-13T15:26:23;6.43;;;3.10;;
65202;SDS011;51788;45.124;38.966;2022-09-13T15:31:25;11.57;;;3.20;;
65202;SDS011;51788;45.124;38.966;2022-09-13T15:37:01;5.30;;;2.85;;
65202;SDS011;51788;45.124;38.966;2022-09-13T15:39:47;6.18;;;2.65;;
65202;SDS011;51788;45.124;38.966;2022-09-13T15:42:17;9.10;;;2.88;;
65202;SDS011;51788;45.124;38.966;2022-09-13T15:44:43;12.82;;;3.15;;
65202;SDS011;51788;45.124;38.966;2022-09-13T15:47:12;18.80;;;3.33;;
65202;SDS011;51788;45.124;38.966;2022-09-13T15:49:45;18.27;;;3.92;;
65202;SDS011;51788;45.124;38.966;2022-09-13T15:52:14;8.40;;;2.92;;
65202;SDS011;51788;45.124;38.966;2022-09-13T15:54:46;7.35;;;3.28;;
65202;SDS011;51788;45.124;38.966;2022-09-13T15:59:50;8.75;;;3.53;;
65202;SDS011;51788;45.124;38.966;2022-09-13T16:02:18;9.07;;;3.63;;
65202;SDS011;51788;45.124;38.966;2022-09-13T16:04:46;10.10;;;4.90;;
65202;SDS011;51788;45.124;38.966;2022-09-13T16:07:13;8.00;;;4.45;;
65202;SDS011;51788;45.124;38.966;2022-09-13T16:09:40;16.50;;;4.80;;
65202;SDS011;51788;45.124;38.966;2022-09-13T16:12:06;4.57;;;4.18;;
65202;SDS011;51788;45.124;38.966;2022-09-13T16:14:33;6.20;;;4.90;;
65202;SDS011;51788;45.124;38.966;2022-09-13T16:17:06;7.18;;;4.53;;
65202;SDS011;51788;45.124;38.966;2022-09-13T16:19:38;7.00;;;3.75;;
65202;SDS011;51788;45.124;38.966;2022-09-13T16:22:04;12.02;;;3.88;;
65202;SDS011;51788;45.124;38.966;2022-09-13T16:24:30;4.90;;;3.85;;
65202;SDS011;51788;45.124;38.966;2022-09-13T16:26:58;17.52;;;4.10;;
65202;SDS011;51788;45.124;38.966;2022-09-13T16:29:26;12.65;;;4.63;;
65202;SDS011;51788;45.124;38.966;2022-09-13T16:31:52;13.98;;;5.63;;
65202;SDS011;51788;45.124;38.966;2022-09-13T16:34:19;35.17;;;5.45;;
65202;SDS011;51788;45.124;38.966;2022-09-13T16:36:46;9.85;;;5.00;;
65202;SDS011;51788;45.124;38.966;2022-09-13T16:39:12;20.25;;;5.35;;
65202;SDS011;51788;45.124;38.966;2022-09-13T16:41:38;9.02;;;5.85;;
65202;SDS011;51788;45.124;38.966;2022-09-13T16:44:05;19.92;;;8.77;;
65202;SDS011;51788;45.124;38.966;2022-09-13T16:46:31;22.50;;;7.45;;
65202;SDS011;51788;45.124;38.966;2022-09-13T16:48:57;11.65;;;6.05;;
65202;SDS011;51788;45.124;38.966;2022-09-13T16:51:24;14.05;;;6.50;;
65202;SDS011;51788;45.124;38.966;2022-09-13T16:53:51;14.35;;;6.45;;
65202;SDS011;51788;45.124;38.966;2022-09-13T16:56:18;19.33;;;5.93;;
65202;SDS011;51788;45.124;38.966;2022-09-13T16:58:47;9.80;;;5.13;;
65202;SDS011;51788;45.124;38.966;2022-09-13T17:01:17;7.82;;;5.57;;
65202;SDS011;51788;45.124;38.966;2022-09-13T17:03:46;6.05;;;4.82;;
65202;SDS011;51788;45.124;38.966;2022-09-13T17:06:14;15.15;;;5.47;;
65202;SDS011;51788;45.124;38.966;2022-09-13T17:08:50;24.98;;;4.32;;
65202;SDS011;51788;45.124;38.966;2022-09-13T17:11:20;7.30;;;3.92;;
65202;SDS011;51788;45.124;38.966;2022-09-13T17:13:50;4.15;;;3.83;;
65202;SDS011;51788;45.124;38.966;2022-09-13T17:19:09;5.70;;;3.58;;
65202;SDS011;51788;45.124;38.966;2022-09-13T17:21:38;10.63;;;4.10;;
65202;SDS011;51788;45.124;38.966;2022-09-13T17:24:25;4.63;;;3.65;;
65202;SDS011;51788;45.124;38.966;2022-09-13T17:26:52;10.27;;;3.88;;
65202;SDS011;51788;45.124;38.966;2022-09-13T17:29:22;7.95;;;3.78;;
65202;SDS011;51788;45.124;38.966;2022-09-13T17:32:07;4.93;;;4.15;;
65202;SDS011;51788;45.124;38.966;2022-09-13T17:34:34;37.50;;;4.15;;
65202;SDS011;51788;45.124;38.966;2022-09-13T17:37:00;3.67;;;3.38;;
65202;SDS011;51788;45.124;38.966;2022-09-13T17:39:28;3.42;;;3.22;;
65202;SDS011;51788;45.124;38.966;2022-09-13T17:42:15;39.75;;;4.60;;
65202;SDS011;51788;45.124;38.966;2022-09-13T17:44:57;8.55;;;4.40;;
65202;SDS011;51788;45.124;38.966;2022-09-13T17:47:24;8.15;;;4.13;;
65202;SDS011;51788;45.124;38.966;2022-09-13T17:49:50;6.28;;;3.88;;
65202;SDS011;51788;45.124;38.966;2022-09-13T17:52:43;4.43;;;4.00;;
65202;SDS011;51788;45.124;38.966;2022-09-13T17:55:10;4.82;;;3.90;;
65202;SDS011;51788;45.124;38.966;2022-09-13T17:57:37;11.93;;;4.55;;
65202;SDS011;51788;45.124;38.966;2022-09-13T18:00:04;10.75;;;3.97;;
65202;SDS011;51788;45.124;38.966;2022-09-13T18:02:34;7.05;;;4.30;;
65202;SDS011;51788;45.124;38.966;2022-09-13T18:05:21;7.65;;;4.50;;
65202;SDS011;51788;45.124;38.966;2022-09-13T18:08:02;8.18;;;4.85;;
65202;SDS011;51788;45.124;38.966;2022-09-13T18:10:28;6.78;;;4.65;;
65202;SDS011;51788;45.124;38.966;2022-09-13T18:13:08;17.13;;;5.25;;
65202;SDS011;51788;45.124;38.966;2022-09-13T18:16:08;5.97;;;4.85;;
65202;SDS011;51788;45.124;38.966;2022-09-13T18:18:40;13.13;;;5.85;;
65202;SDS011;51788;45.124;38.966;2022-09-13T18:21:09;20.90;;;5.80;;
65202;SDS011;51788;45.124;38.966;2022-09-13T18:23:35;9.43;;;5.60;;
65202;SDS011;51788;45.124;38.966;2022-09-13T18:26:22;14.77;;;5.53;;
65202;SDS011;51788;45.124;38.966;2022-09-13T18:29:31;7.25;;;5.22;;
65202;SDS011;51788;45.124;38.966;2022-09-13T18:31:39;13.88;;;5.35;;
65202;SDS011;51788;45.124;38.966;2022-09-13T18:34:07;20.10;;;6.57;;
65202;SDS011;51788;45.124;38.966;2022-09-13T18:36:36;17.30;;;6.68;;
65202;SDS011;51788;45.124;38.966;2022-09-13T18:39:03;9.77;;;5.65;;
65202;SDS011;51788;45.124;38.966;2022-09-13T18:41:37;5.38;;;4.97;;
65202;SDS011;51788;45.124;38.966;2022-09-13T18:44:10;7.22;;;4.18;;
65202;SDS011;51788;45.124;38.966;2022-09-13T18:46:37;4.97;;;4.18;;
65202;SDS011;51788;45.124;38.966;2022-09-13T18:52:18;9.32;;;5.85;;